createdAt,value
2023-10-12T00:00:37.487Z,100589.50
2023-10-12T00:03:06.994Z,100586.19
2023-10-12T00:05:35.806Z,100583.47
2023-10-12T00:08:11.303Z,100583.47
2023-10-12T00:10:45.510Z,100579.09
2023-10-12T00:13:13.899Z,100575.56
2023-10-12T00:15:47.563Z,100572.06
2023-10-12T00:18:18.335Z,100564.16
2023-10-12T00:20:51.755Z,100567.91
2023-10-12T00:23:20.293Z,100570.59
2023-10-12T00:25:55.820Z,100563.56
2023-10-12T00:28:30.563Z,100568.13
2023-10-12T00:30:59.458Z,100558.34
2023-10-12T00:33:27.624Z,100559.16
2023-10-12T00:36:01.893Z,100554.00
2023-10-12T00:38:31.796Z,100559.41
2023-10-12T00:41:05.171Z,100545.28
2023-10-12T00:43:38.482Z,100536.34
2023-10-12T00:46:22.088Z,100544.22
2023-10-12T00:48:51.783Z,100526.34
2023-10-12T00:51:20.120Z,100531.75
2023-10-12T00:53:57.255Z,100527.16
2023-10-12T00:56:27.312Z,100523.63
2023-10-12T00:58:56.850Z,100523.03
2023-10-12T01:01:25.270Z,100519.28
2023-10-12T01:03:54.054Z,100529.25
2023-10-12T01:06:30.585Z,100517.63
2023-10-12T01:09:01.507Z,100512.22
2023-10-12T01:11:35.678Z,100509.75
2023-10-12T01:14:16.544Z,100507.25
2023-10-12T01:16:47.204Z,100512.66
2023-10-12T01:19:22.747Z,100508.31
2023-10-12T01:21:53.340Z,100509.31
2023-10-12T01:24:25.782Z,100505.59
2023-10-12T01:26:54.679Z,100503.91
2023-10-12T01:29:22.936Z,100499.75
2023-10-12T01:31:55.090Z,100484.38
2023-10-12T01:34:26.251Z,100494.34
2023-10-12T01:36:59.524Z,100488.09
2023-10-12T01:39:30.216Z,100482.94
2023-10-12T01:41:58.460Z,100493.75
2023-10-12T01:44:26.730Z,100490.19
2023-10-12T01:46:54.840Z,100490.19
2023-10-12T01:49:22.990Z,100482.31
2023-10-12T01:51:51.068Z,100487.50
2023-10-12T01:54:25.868Z,100484.78
2023-10-12T01:56:54.535Z,100489.38
2023-10-12T01:59:22.782Z,100483.13
2023-10-12T02:02:11.222Z,100488.53
2023-10-12T02:04:41.677Z,100503.72
2023-10-12T02:07:11.941Z,100493.13
2023-10-12T02:09:43.287Z,100482.31
2023-10-12T02:12:14.645Z,100496.84
2023-10-12T02:14:42.822Z,100493.34
2023-10-12T02:17:10.942Z,100495.22
2023-10-12T02:19:43.614Z,100493.56
2023-10-12T02:22:20.981Z,100497.28
2023-10-12T02:25:00.532Z,100491.06
2023-10-12T02:27:28.728Z,100489.41
2023-10-12T02:29:57.942Z,100488.56
2023-10-12T02:32:26.836Z,100482.34
2023-10-12T02:34:58.654Z,100482.34
2023-10-12T02:37:29.111Z,100475.28
2023-10-12T02:39:58.724Z,100467.19
2023-10-12T02:42:41.755Z,100468.25
2023-10-12T02:45:19.056Z,100461.16
2023-10-12T02:47:50.167Z,100461.97
2023-10-12T02:50:28.495Z,100460.34
2023-10-12T02:52:56.770Z,100457.63
2023-10-12T02:55:41.430Z,100458.69
2023-10-12T02:58:20.776Z,100459.53
2023-10-12T03:00:56.739Z,100454.13
2023-10-12T03:03:27.762Z,100455.13
2023-10-12T03:05:59.990Z,100452.44
2023-10-12T03:08:32.768Z,100449.72
2023-10-12T03:11:14.024Z,100452.44
2023-10-12T03:13:44.124Z,100453.50
2023-10-12T03:16:22.163Z,100451.84
2023-10-12T03:18:58.859Z,100448.28
2023-10-12T03:21:29.097Z,100452.88
2023-10-12T03:23:59.070Z,100446.84
2023-10-12T03:26:28.643Z,100458.72
2023-10-12T03:29:03.907Z,100461.41
2023-10-12T03:31:37.589Z,100453.31
2023-10-12T03:34:18.180Z,100452.50
2023-10-12T03:36:49.599Z,100445.41
2023-10-12T03:39:29.135Z,100450.63
2023-10-12T03:42:11.299Z,100447.28
2023-10-12T03:44:50.175Z,100447.28
2023-10-12T03:47:25.470Z,100444.59
2023-10-12T03:50:01.532Z,100449.16
2023-10-12T03:52:35.703Z,100451.03
2023-10-12T03:55:25.350Z,100457.47
2023-10-12T03:58:07.507Z,100453.13
2023-10-12T04:00:42.755Z,100450.44
2023-10-12T04:03:19.984Z,100451.25
2023-10-12T04:05:52.771Z,100457.72
2023-10-12T04:08:40.747Z,100456.66
2023-10-12T04:11:41.326Z,100441.69
2023-10-12T04:14:45.210Z,100453.38
2023-10-12T04:17:23.249Z,100443.38
2023-10-12T04:20:05.285Z,100447.97
2023-10-12T04:22:42.803Z,100441.69
2023-10-12T04:25:14.739Z,100445.47
2023-10-12T04:27:51.749Z,100452.94
2023-10-12T04:30:22.034Z,100444.03
2023-10-12T04:33:13.169Z,100447.53
2023-10-12T04:36:02.971Z,100441.53
2023-10-12T04:38:46.654Z,100440.50
2023-10-12T04:41:26.614Z,100438.00
2023-10-12T04:43:55.173Z,100436.13
2023-10-12T04:46:40.982Z,100447.97
2023-10-12T04:49:23.407Z,100453.38
2023-10-12T04:52:09.984Z,100451.75
2023-10-12T04:54:50.811Z,100446.34
2023-10-12T04:57:19.073Z,100450.88
2023-10-12T04:59:52.305Z,100441.97
2023-10-12T05:02:31.999Z,100443.84
2023-10-12T05:05:37.130Z,100444.66
2023-10-12T05:08:06.430Z,100443.84
2023-10-12T05:10:47.631Z,100451.13
2023-10-12T05:13:23.168Z,100453.00
2023-10-12T05:16:03.958Z,100452.13
2023-10-12T05:18:34.063Z,100460.25
2023-10-12T05:21:02.358Z,100462.94
2023-10-12T05:23:31.174Z,100450.50
2023-10-12T05:26:11.452Z,100458.59
2023-10-12T05:28:49.162Z,100452.13
2023-10-12T05:31:21.979Z,100452.13
2023-10-12T05:34:18.255Z,100445.91
2023-10-12T05:36:46.965Z,100463.81
2023-10-12T05:39:15.172Z,100455.47
2023-10-12T05:41:43.260Z,100453.81
2023-10-12T05:44:14.976Z,100460.88
2023-10-12T05:46:46.498Z,100457.13
2023-10-12T05:49:16.181Z,100466.88
2023-10-12T05:51:45.882Z,100465.84
2023-10-12T05:54:16.583Z,100472.09
2023-10-12T05:56:45.707Z,100470.22
2023-10-12T05:59:15.291Z,100470.84
2023-10-12T06:01:47.549Z,100477.88
2023-10-12T06:04:17.487Z,100481.19
2023-10-12T06:06:45.733Z,100482.03
2023-10-12T06:09:14.944Z,100479.09
2023-10-12T06:11:43.692Z,100477.00
2023-10-12T06:14:11.940Z,100477.00
2023-10-12T06:16:41.951Z,100475.97
2023-10-12T06:19:19.708Z,100469.53
2023-10-12T06:21:52.406Z,100474.72
2023-10-12T06:24:32.492Z,100471.78
2023-10-12T06:27:03.407Z,100481.56
2023-10-12T06:29:33.892Z,100478.63
2023-10-12T06:32:03.397Z,100480.31
2023-10-12T06:34:31.572Z,100487.16
2023-10-12T06:37:12.675Z,100488.56
2023-10-12T06:39:58.102Z,100486.50
2023-10-12T06:42:28.750Z,100485.22
2023-10-12T06:44:55.891Z,100493.94
2023-10-12T06:47:30.117Z,100485.63
2023-10-12T06:50:01.591Z,100505.81
2023-10-12T06:52:31.365Z,100500.19
2023-10-12T06:55:01.184Z,100498.94
2023-10-12T06:57:37.074Z,100504.91
2023-10-12T07:00:34.882Z,100511.78
2023-10-12T07:03:02.289Z,100497.22
2023-10-12T07:05:34.791Z,100491.38
2023-10-12T07:08:08.779Z,100490.31
2023-10-12T07:10:36.866Z,100487.63
2023-10-12T07:13:05.896Z,100486.59
2023-10-12T07:15:41.799Z,100480.75
2023-10-12T07:18:16.205Z,100483.22
2023-10-12T07:20:47.684Z,100485.72
2023-10-12T07:23:17.209Z,100486.31
2023-10-12T07:25:46.829Z,100483.38
2023-10-12T07:28:19.899Z,100484.44
2023-10-12T07:31:02.235Z,100478.81
2023-10-12T07:33:32.378Z,100480.03
2023-10-12T07:36:11.162Z,100470.88
2023-10-12T07:38:41.714Z,100473.16
2023-10-12T07:41:10.932Z,100479.16
2023-10-12T07:43:39.611Z,100477.06
2023-10-12T07:46:14.633Z,100474.97
2023-10-12T07:48:43.913Z,100479.31
2023-10-12T07:51:17.175Z,100477.84
2023-10-12T07:53:46.754Z,100474.94
2023-10-12T07:56:18.189Z,100473.88
2023-10-12T07:58:49.045Z,100487.16
2023-10-12T08:01:40.311Z,100481.31
2023-10-12T08:04:20.929Z,100488.59
2023-10-12T08:06:50.131Z,100486.50
2023-10-12T08:09:43.482Z,100478.19
2023-10-12T08:15:12.200Z,100470.22
2023-10-12T08:17:47.187Z,100471.25
2023-10-12T08:20:29.304Z,100466.00
2023-10-12T08:23:03.387Z,100467.44
2023-10-12T08:25:39.446Z,100473.25
2023-10-12T08:28:21.105Z,100457.63
2023-10-12T08:30:50.016Z,100457.22
2023-10-12T08:33:38.582Z,100460.50
2023-10-12T08:36:24.557Z,100456.53
2023-10-12T08:38:55.638Z,100459.84
2023-10-12T08:41:25.782Z,100454.22
2023-10-12T08:43:57.602Z,100452.94
2023-10-12T08:46:44.830Z,100457.91
2023-10-12T08:49:26.736Z,100454.97
2023-10-12T08:52:09.094Z,100453.69
2023-10-12T08:54:38.575Z,100457.00
2023-10-12T08:57:13.914Z,100457.38
2023-10-12T08:59:43.742Z,100466.56
2023-10-12T09:02:21.039Z,100458.44
2023-10-12T09:04:51.294Z,100460.69
2023-10-12T09:07:22.505Z,100458.59
2023-10-12T09:09:56.902Z,100453.19
2023-10-12T09:12:24.865Z,100462.72
2023-10-12T09:14:56.291Z,100454.41
2023-10-12T09:17:34.061Z,100455.59
2023-10-12T09:20:19.983Z,100453.50
2023-10-12T09:22:57.863Z,100443.47
2023-10-12T09:25:52.638Z,100447.63
2023-10-12T09:28:27.325Z,100449.25
2023-10-12T09:31:01.634Z,100448.84
2023-10-12T09:33:55.385Z,100446.69
2023-10-12T09:36:23.778Z,100445.41
2023-10-12T09:38:57.021Z,100444.13
2023-10-12T09:41:27.814Z,100444.97
2023-10-12T09:43:55.898Z,100447.00
2023-10-12T09:46:27.267Z,100442.19
2023-10-12T09:48:59.875Z,100436.56
2023-10-12T09:51:29.982Z,100429.00
2023-10-12T09:54:00.517Z,100433.16
2023-10-12T09:56:34.948Z,100432.72
2023-10-12T09:59:09.303Z,100427.28
2023-10-12T10:01:50.856Z,100433.09
2023-10-12T10:04:36.210Z,100418.50
2023-10-12T10:07:19.990Z,100417.22
2023-10-12T10:09:49.610Z,100415.94
2023-10-12T10:12:19.473Z,100405.91
2023-10-12T10:14:52.988Z,100407.34
2023-10-12T10:17:25.378Z,100400.03
2023-10-12T10:20:28.323Z,100400.63
2023-10-12T10:22:58.725Z,100394.16
2023-10-12T10:25:28.784Z,100393.09
2023-10-12T10:27:58.225Z,100385.56
2023-10-12T10:30:29.696Z,100378.06
2023-10-12T10:33:08.722Z,100383.22
2023-10-12T10:36:13.708Z,100379.47
2023-10-12T10:38:54.883Z,100377.34
2023-10-12T10:41:38.640Z,100371.91
2023-10-12T10:44:10.113Z,100363.56
2023-10-12T10:46:41.601Z,100360.59
2023-10-12T10:49:32.029Z,100355.78
2023-10-12T10:52:15.073Z,100359.31
2023-10-12T10:54:57.822Z,100354.75
2023-10-12T10:57:33.439Z,100348.03
2023-10-12T11:00:01.849Z,100346.97
2023-10-12T11:02:29.860Z,100357.34
2023-10-12T11:05:01.340Z,100349.22
2023-10-12T11:07:30.840Z,100350.88
2023-10-12T11:10:20.726Z,100345.22
2023-10-12T11:12:49.597Z,100341.44
2023-10-12T11:15:22.805Z,100336.00
2023-10-12T11:17:58.608Z,100332.00
2023-10-12T11:20:51.922Z,100328.25
2023-10-12T11:23:21.498Z,100321.75
2023-10-12T11:25:49.553Z,100320.72
2023-10-12T11:28:22.073Z,100319.66
2023-10-12T11:30:53.497Z,100319.88
2023-10-12T11:33:29.675Z,100323.19
2023-10-12T11:36:02.176Z,100311.50
2023-10-12T11:38:32.356Z,100310.44
2023-10-12T11:41:13.193Z,100305.63
2023-10-12T11:43:51.102Z,100306.44
2023-10-12T11:46:19.268Z,100306.44
2023-10-12T11:48:47.762Z,100292.88
2023-10-12T11:51:16.219Z,100281.00
2023-10-12T11:53:45.725Z,100281.59
2023-10-12T11:56:15.037Z,100278.03
2023-10-12T11:58:48.969Z,100270.16
2023-10-12T12:01:17.091Z,100267.19
2023-10-12T12:03:46.845Z,100267.19
2023-10-12T12:06:20.235Z,100267.78
2023-10-12T12:08:50.164Z,100270.50
2023-10-12T12:11:20.712Z,100268.59
2023-10-12T12:13:54.056Z,100261.28
2023-10-12T12:16:24.988Z,100258.56
2023-10-12T12:18:54.510Z,100253.16
2023-10-12T12:21:32.574Z,100256.72
2023-10-12T12:24:16.376Z,100249.41
2023-10-12T12:26:47.881Z,100252.94
2023-10-12T12:29:23.126Z,100252.09
2023-10-12T12:31:51.310Z,100253.75
2023-10-12T12:34:39.373Z,100246.69
2023-10-12T12:37:09.011Z,100241.25
2023-10-12T12:39:38.466Z,100243.72
2023-10-12T12:42:10.495Z,100242.91
2023-10-12T12:44:38.677Z,100238.28
2023-10-12T12:47:08.369Z,100242.91
2023-10-12T12:49:36.688Z,100238.28
2023-10-12T12:52:05.260Z,100234.53
2023-10-12T12:54:36.634Z,100236.44
2023-10-12T12:57:06.385Z,100235.34
2023-10-12T12:59:34.459Z,100229.94
2023-10-12T13:02:04.486Z,100228.88
2023-10-12T13:04:35.694Z,100226.16
2023-10-12T13:07:10.183Z,100227.81
2023-10-12T13:09:38.472Z,100221.31
2023-10-12T13:12:08.240Z,100229.47
2023-10-12T13:14:36.384Z,100218.59
2023-10-12T13:17:04.619Z,100213.19
2023-10-12T13:19:45.894Z,100209.44
2023-10-12T13:22:14.469Z,100210.25
2023-10-12T13:24:44.540Z,100212.16
2023-10-12T13:27:21.582Z,100207.31
2023-10-12T13:29:50.993Z,100207.31
2023-10-12T13:32:19.976Z,100203.56
2023-10-12T13:34:48.070Z,100198.13
2023-10-12T13:37:16.078Z,100203.56
2023-10-12T13:39:44.210Z,100206.28
2023-10-12T13:42:13.971Z,100208.97
2023-10-12T13:44:43.879Z,100200.59
2023-10-12T13:47:14.381Z,100201.44
2023-10-12T13:49:42.717Z,100202.47
2023-10-12T13:52:11.293Z,100201.44
2023-10-12T13:54:50.242Z,100192.72
2023-10-12T13:57:19.732Z,100190.00
2023-10-12T13:59:49.013Z,100185.97
2023-10-12T14:02:17.420Z,100191.41
2023-10-12T14:04:45.963Z,100192.22
2023-10-12T14:07:14.160Z,100193.88
2023-10-12T14:09:42.286Z,100184.69
2023-10-12T14:12:11.803Z,100195.53
2023-10-12T14:14:41.433Z,100190.09
2023-10-12T14:17:09.727Z,100193.38
2023-10-12T14:19:38.197Z,100193.38
2023-10-12T14:22:09.110Z,100189.63
2023-10-12T14:24:37.331Z,100186.66
2023-10-12T14:27:07.788Z,100180.78
2023-10-12T14:29:37.384Z,100181.09
2023-10-12T14:32:09.762Z,100188.75
2023-10-12T14:34:39.985Z,100186.38
2023-10-12T14:37:14.646Z,100175.91
2023-10-12T14:39:42.936Z,100179.75
2023-10-12T14:42:11.890Z,100182.25
2023-10-12T14:44:40.188Z,100176.59
2023-10-12T14:47:09.636Z,100179.31
2023-10-12T14:49:38.292Z,100177.16
2023-10-12T14:52:09.425Z,100178.81
2023-10-12T14:54:37.555Z,100175.84
2023-10-12T14:57:05.972Z,100173.94
2023-10-12T14:59:34.920Z,100181.28
2023-10-12T15:02:11.181Z,100177.97
2023-10-12T15:04:43.451Z,100176.09
2023-10-12T15:07:13.752Z,100179.38
2023-10-12T15:09:49.812Z,100184.81
2023-10-12T15:12:18.353Z,100183.16
2023-10-12T15:14:48.328Z,100185.28
2023-10-12T15:17:20.421Z,100182.84
2023-10-12T15:19:49.932Z,100184.97
2023-10-12T15:22:19.576Z,100190.06
2023-10-12T15:24:47.823Z,100187.22
2023-10-12T15:27:17.060Z,100184.97
2023-10-12T15:29:46.085Z,100187.63
2023-10-12T15:32:14.361Z,100190.78
2023-10-12T15:34:43.796Z,100185.03
2023-10-12T15:37:14.869Z,100190.09
2023-10-12T15:39:45.824Z,100191.41
2023-10-12T15:42:14.005Z,100196.47
2023-10-12T15:44:42.192Z,100191.50
2023-10-12T15:47:10.251Z,100186.56
2023-10-12T15:49:38.390Z,100190.56
2023-10-12T15:52:06.753Z,100195.38
2023-10-12T15:54:36.340Z,100196.69
2023-10-12T15:57:05.376Z,100192.00
2023-10-12T15:59:34.505Z,100196.81
2023-10-12T16:02:03.311Z,100190.81
2023-10-12T16:04:32.148Z,100195.63
2023-10-12T16:07:06.506Z,100197.75
2023-10-12T16:09:36.598Z,100193.66
2023-10-12T16:12:04.985Z,100192.00
2023-10-12T16:14:33.135Z,100180.00
2023-10-12T16:17:02.037Z,100181.03
2023-10-12T16:19:30.298Z,100179.41
2023-10-12T16:21:58.799Z,100178.81
2023-10-12T16:24:27.380Z,100177.16
2023-10-12T16:26:56.780Z,100179.28
2023-10-12T16:29:27.235Z,100176.78
2023-10-12T16:31:55.441Z,100185.75
2023-10-12T16:34:23.674Z,100185.19
2023-10-12T16:36:51.940Z,100192.72
2023-10-12T16:39:21.669Z,100195.63
2023-10-12T16:41:50.376Z,100194.22
2023-10-12T16:44:19.989Z,100196.94
2023-10-12T16:46:48.391Z,100189.28
2023-10-12T16:49:17.147Z,100209.91
2023-10-12T16:51:46.314Z,100195.78
2023-10-12T16:54:14.569Z,100199.53
2023-10-12T16:56:44.840Z,100203.31
2023-10-12T16:59:13.742Z,100206.00
2023-10-12T17:01:43.297Z,100207.09
2023-10-12T17:04:17.085Z,100203.78
2023-10-12T17:06:45.618Z,100200.47
2023-10-12T17:09:14.416Z,100199.66
2023-10-12T17:11:42.500Z,100203.44
2023-10-12T17:14:10.535Z,100208.00
2023-10-12T17:16:39.062Z,100208.25
2023-10-12T17:19:08.944Z,100209.06
2023-10-12T17:21:36.979Z,100205.75
2023-10-12T17:24:06.566Z,100204.13
2023-10-12T17:26:35.854Z,100200.59
2023-10-12T17:29:04.533Z,100198.94
2023-10-12T17:31:32.726Z,100202.69
2023-10-12T17:34:01.226Z,100206.44
2023-10-12T17:36:31.065Z,100214.56
2023-10-12T17:38:59.870Z,100217.25
2023-10-12T17:41:27.935Z,100213.97
2023-10-12T17:43:56.011Z,100216.91
2023-10-12T17:46:25.982Z,100223.41
2023-10-12T17:48:56.648Z,100226.09
2023-10-12T17:51:25.164Z,100224.44
2023-10-12T17:53:54.726Z,100226.56
2023-10-12T17:56:22.793Z,100226.56
2023-10-12T17:58:50.901Z,100226.78
2023-10-12T18:01:19.510Z,100221.59
2023-10-12T18:03:49.361Z,100230.78
2023-10-12T18:06:17.958Z,100223.72
2023-10-12T18:08:46.105Z,100232.91
2023-10-12T18:11:15.785Z,100228.56
2023-10-12T18:13:44.152Z,100229.59
2023-10-12T18:16:13.631Z,100227.94
2023-10-12T18:18:41.859Z,100233.16
2023-10-12T18:21:10.008Z,100241.50
2023-10-12T18:23:40.984Z,100238.78
2023-10-12T18:26:09.261Z,100237.16
2023-10-12T18:28:38.744Z,100242.56
2023-10-12T18:31:07.582Z,100240.88
2023-10-12T18:33:36.291Z,100243.59
2023-10-12T18:36:05.447Z,100245.47
2023-10-12T18:38:35.976Z,100250.09
2023-10-12T18:41:05.870Z,100254.69
2023-10-12T18:43:34.337Z,100256.78
2023-10-12T18:46:04.983Z,100255.97
2023-10-12T18:48:33.256Z,100257.00
2023-10-12T18:51:02.078Z,100253.47
2023-10-12T18:53:30.723Z,100260.78
2023-10-12T18:56:02.587Z,100254.75
2023-10-12T18:58:30.702Z,100257.47
2023-10-12T19:01:01.149Z,100255.56
2023-10-12T19:03:30.883Z,100260.44
2023-10-12T19:05:59.023Z,100259.56
2023-10-12T19:08:27.522Z,100259.81
2023-10-12T19:10:55.650Z,100253.59
2023-10-12T19:13:24.740Z,100259.00
2023-10-12T19:15:53.970Z,100260.03
2023-10-12T19:18:31.370Z,100261.09
2023-10-12T19:21:00.955Z,100263.81
2023-10-12T19:23:28.998Z,100261.94
2023-10-12T19:25:57.963Z,100262.19
2023-10-12T19:28:26.577Z,100262.19
2023-10-12T19:30:55.904Z,100259.47
2023-10-12T19:33:24.139Z,100271.94
2023-10-12T19:35:52.220Z,100267.59
2023-10-12T19:38:22.611Z,100272.16
2023-10-12T19:40:51.795Z,100260.50
2023-10-12T19:43:20.040Z,100267.59
2023-10-12T19:45:48.212Z,100257.19
2023-10-12T19:48:17.134Z,100268.88
2023-10-12T19:50:45.531Z,100265.31
2023-10-12T19:53:13.625Z,100265.56
2023-10-12T19:55:45.394Z,100272.88
2023-10-12T19:58:14.071Z,100265.56
2023-10-12T20:00:42.179Z,100268.25
2023-10-12T20:03:23.442Z,100271.78
2023-10-12T20:05:52.075Z,100269.09
2023-10-12T20:08:20.634Z,100256.63
2023-10-12T20:10:50.253Z,100267.44
2023-10-12T20:13:20.859Z,100266.38
2023-10-12T20:15:49.933Z,100273.69
2023-10-12T20:18:20.897Z,100268.25
2023-10-12T20:20:49.287Z,100279.91
2023-10-12T20:23:17.512Z,100270.72
2023-10-12T20:25:45.944Z,100271.78
2023-10-12T20:28:15.852Z,100270.16
2023-10-12T20:30:45.093Z,100270.97
2023-10-12T20:33:13.405Z,100274.50
2023-10-12T20:35:41.648Z,100275.56
2023-10-12T20:38:12.690Z,100274.50
2023-10-12T20:40:40.956Z,100278.28
2023-10-12T20:43:10.451Z,100277.44
2023-10-12T20:45:41.775Z,100275.56
2023-10-12T20:48:10.856Z,100272.00
2023-10-12T20:50:40.218Z,100271.19
2023-10-12T20:53:10.428Z,100265.78
2023-10-12T20:55:44.537Z,100269.56
2023-10-12T20:58:16.117Z,100267.88
2023-10-12T21:00:46.580Z,100273.28
2023-10-12T21:03:22.279Z,100273.28
2023-10-12T21:05:51.035Z,100272.47
2023-10-12T21:08:22.608Z,100272.25
2023-10-12T21:10:59.427Z,100271.66
2023-10-12T21:13:28.172Z,100274.38
2023-10-12T21:16:02.240Z,100273.75
2023-10-12T21:18:36.365Z,100269.16
2023-10-12T21:21:19.467Z,100269.16
2023-10-12T21:23:51.664Z,100275.44
2023-10-12T21:26:22.668Z,100273.16
2023-10-12T21:28:55.719Z,100278.34
2023-10-12T21:31:29.591Z,100279.41
2023-10-12T21:34:00.425Z,100273.16
2023-10-12T21:36:30.335Z,100274.22
2023-10-12T21:38:58.689Z,100276.94
2023-10-12T21:41:36.724Z,100281.28
2023-10-12T21:44:05.901Z,100272.56
2023-10-12T21:46:35.931Z,100271.75
2023-10-12T21:49:04.586Z,100276.56
2023-10-12T21:51:34.265Z,100276.56
2023-10-12T21:54:05.508Z,100276.78
2023-10-12T21:56:33.678Z,100276.78
2023-10-12T21:59:01.834Z,100281.38
2023-10-12T22:01:35.275Z,100283.25
2023-10-12T22:04:05.987Z,100284.28
2023-10-12T22:06:34.805Z,100283.47
2023-10-12T22:09:05.669Z,100279.34
2023-10-12T22:11:39.981Z,100283.47
2023-10-12T22:14:16.983Z,100284.75
2023-10-12T22:16:51.218Z,100287.47
2023-10-12T22:19:21.695Z,100289.34
2023-10-12T22:21:50.413Z,100283.13
2023-10-12T22:24:18.757Z,100290.41
2023-10-12T22:26:47.877Z,100289.34
2023-10-12T22:29:16.246Z,100283.13
2023-10-12T22:31:45.640Z,100290.16
2023-10-12T22:34:16.914Z,100291.22
2023-10-12T22:36:48.086Z,100294.75
2023-10-12T22:39:18.238Z,100285.81
2023-10-12T22:41:50.248Z,100286.84
2023-10-12T22:44:19.105Z,100283.31
2023-10-12T22:46:47.240Z,100284.16
2023-10-12T22:49:15.617Z,100281.44
2023-10-12T22:51:43.791Z,100280.63
2023-10-12T22:54:13.324Z,100283.56
2023-10-12T22:56:43.067Z,100290.84
2023-10-12T22:59:11.268Z,100287.31
2023-10-12T23:01:40.272Z,100287.31
2023-10-12T23:04:09.249Z,100289.19
2023-10-12T23:06:37.511Z,100286.75
2023-10-12T23:09:08.530Z,100298.38
2023-10-12T23:11:38.680Z,100292.97
2023-10-12T23:14:10.260Z,100289.66
2023-10-12T23:16:51.624Z,100283.44
2023-10-12T23:19:29.971Z,100292.38
2023-10-12T23:22:01.778Z,100289.88
2023-10-12T23:24:29.939Z,100288.19
2023-10-12T23:27:00.201Z,100296.31
2023-10-12T23:29:28.833Z,100297.16
2023-10-12T23:31:57.031Z,100304.44
2023-10-12T23:34:27.274Z,100300.91
2023-10-12T23:36:59.894Z,100312.38
2023-10-12T23:39:36.797Z,100305.28
2023-10-12T23:42:08.895Z,100313.41
2023-10-12T23:45:02.762Z,100313.41
2023-10-12T23:47:43.015Z,100308.22
2023-10-12T23:50:28.884Z,100319.03
2023-10-12T23:52:57.836Z,100314.66
2023-10-12T23:55:31.900Z,100312.75
2023-10-12T23:58:08.212Z,100311.94
